Time;durP1;ratioP1;P1;durP2;ratioP2;P2;SDS_P1;SDS_P2;PMS_P1;PMS_P2;Temp;Humidity;BMP_temperature;BMP_pressure;BME280_temperature;BME280_humidity;BME280_pressure;Samples;Min_cycle;Max_cycle;Signal;HPM_P1;HPM_P2
2023/04/13 00:02:02;;;;;;;7.97;4.05;;;;;;;9.77;59.73;98738.19;4470319;32;20085;-96
2023/04/13 00:04:30;;;;;;;8.85;4.12;;;;;;;9.70;59.72;98736.75;4475713;31;20088;-95
2023/04/13 00:06:57;;;;;;;8.20;3.75;;;;;;;9.90;59.74;98734.09;4476907;31;21068;-94
2023/04/13 00:09:24;;;;;;;12.35;4.43;;;;;;;9.71;59.72;98728.91;4463608;32;20810;-96
2023/04/13 00:11:50;;;;;;;8.45;3.83;;;;;;;9.83;59.73;98727.50;4466731;32;20131;-95
2023/04/13 00:14:17;;;;;;;8.95;4.05;;;;;;;9.92;59.74;98721.03;4473435;32;20112;-94
2023/04/13 00:16:43;;;;;;;7.47;3.97;;;;;;;9.91;59.74;98728.00;4477212;31;20122;-95
2023/04/13 00:19:09;;;;;;;11.95;4.90;;;;;;;10.02;59.75;98728.34;4463596;32;20112;-94
2023/04/13 00:21:34;;;;;;;11.43;4.95;;;;;;;10.05;59.75;98723.00;4461003;32;20419;-94
2023/04/13 00:24:00;;;;;;;9.70;4.22;;;;;;;10.15;59.75;98726.84;4473633;32;20118;-94
2023/04/13 00:26:25;;;;;;;8.20;4.28;;;;;;;10.09;59.76;98721.94;4469367;31;20123;-94
2023/04/13 00:28:51;;;;;;;9.27;4.78;;;;;;;10.20;59.76;98720.63;4473402;32;20108;-94
2023/04/13 00:31:16;;;;;;;11.23;5.25;;;;;;;10.21;59.75;98722.34;4460923;32;20388;-95
2023/04/13 00:33:42;;;;;;;12.30;4.82;;;;;;;10.16;59.75;98714.69;4471379;32;20092;-94
2023/04/13 00:36:07;;;;;;;12.37;5.28;;;;;;;10.15;59.75;98713.00;4476948;31;20114;-93
2023/04/13 00:38:33;;;;;;;10.25;4.53;;;;;;;10.42;59.77;98709.16;4462330;31;20157;-91
2023/04/13 00:40:58;;;;;;;9.07;4.10;;;;;;;10.31;59.76;98710.56;4465218;32;20104;-94
2023/04/13 00:43:25;;;;;;;10.70;4.20;;;;;;;10.40;59.77;98712.72;4475365;31;20163;-94
2023/04/13 00:45:50;;;;;;;11.88;4.75;;;;;;;10.35;59.77;98709.50;4473167;31;20084;-94
2023/04/13 00:48:16;;;;;;;10.05;4.45;;;;;;;10.30;59.76;98712.34;4460834;31;20162;-93
2023/04/13 00:50:41;;;;;;;9.75;5.30;;;;;;;10.39;59.76;98711.03;4471521;32;20165;-91
2023/04/13 00:53:07;;;;;;;8.20;4.72;;;;;;;10.44;59.77;98714.28;4458646;31;20127;-90
2023/04/13 00:55:37;;;;;;;8.88;4.97;;;;;;;10.35;59.77;98712.97;4473942;31;20064;-91
2023/04/13 00:58:02;;;;;;;11.30;4.70;;;;;;;10.54;59.78;98712.91;4474941;31;20436;-91
2023/04/13 01:00:28;;;;;;;9.48;5.15;;;;;;;10.47;59.78;98718.50;4459718;32;20134;-92
2023/04/13 01:02:53;;;;;;;9.68;4.60;;;;;;;10.44;59.77;98711.69;4471204;32;20084;-95
2023/04/13 01:05:19;;;;;;;7.62;4.82;;;;;;;10.50;59.77;98716.59;4464478;32;20118;-93
2023/04/13 01:07:53;;;;;;;8.38;4.82;;;;;;;10.49;59.77;98707.09;4461115;32;20108;-93
2023/04/13 01:10:40;;;;;;;9.13;4.62;;;;;;;10.52;59.77;98712.16;4481684;31;20104;-92
2023/04/13 01:13:19;;;;;;;10.07;4.65;;;;;;;10.53;59.77;98713.00;4491540;31;20110;-92
2023/04/13 01:16:08;;;;;;;13.15;5.25;;;;;;;10.60;59.77;98704.81;4478331;31;20191;-92
2023/04/13 01:18:36;;;;;;;10.32;5.10;;;;;;;10.58;59.78;98709.25;4473733;32;20069;-92
2023/04/13 01:21:03;;;;;;;13.25;5.62;;;;;;;10.52;59.77;98703.50;4461910;32;20741;-94
2023/04/13 01:23:44;;;;;;;9.80;5.22;;;;;;;10.41;59.77;98702.28;4461676;32;20127;-94
2023/04/13 01:26:10;;;;;;;9.30;5.20;;;;;;;10.40;59.76;98699.72;4470373;31;20100;-92
2023/04/13 01:28:36;;;;;;;13.20;5.30;;;;;;;10.48;59.77;98697.63;4474606;31;20128;-93
2023/04/13 01:31:04;;;;;;;12.30;5.60;;;;;;;10.50;59.77;98702.75;4461626;32;20116;-94
2023/04/13 01:33:32;;;;;;;8.27;4.97;;;;;;;10.49;59.77;98701.06;4485418;31;20052;-94
2023/04/13 01:35:59;;;;;;;11.82;5.62;;;;;;;10.50;59.77;98700.13;4467039;31;20096;-94
2023/04/13 01:38:24;;;;;;;10.18;5.00;;;;;;;10.47;59.78;98702.91;4485111;31;20112;-94
2023/04/13 01:40:50;;;;;;;12.65;4.25;;;;;;;10.47;59.78;98703.72;4475177;32;20135;-93
2023/04/13 01:43:17;;;;;;;10.23;4.85;;;;;;;10.52;59.78;98703.50;4464586;31;20369;-94
2023/04/13 01:46:03;;;;;;;9.63;5.10;;;;;;;10.52;59.77;98696.53;4470195;31;20678;-94
2023/04/13 01:48:36;;;;;;;10.93;4.87;;;;;;;10.64;59.79;98703.75;4476359;31;20104;-93
2023/04/13 01:51:07;;;;;;;11.23;4.90;;;;;;;10.63;59.79;98701.22;4470576;31;20134;-92
2023/04/13 01:53:43;;;;;;;9.88;4.62;;;;;;;10.61;59.77;98703.06;4480822;31;20110;-94
2023/04/13 01:56:09;;;;;;;10.77;5.00;;;;;;;10.55;59.78;98695.56;4476858;31;20112;-92
2023/04/13 01:58:34;;;;;;;5.95;4.00;;;;;;;10.64;59.78;98701.12;4474844;32;20159;-92
2023/04/13 02:00:59;;;;;;;10.88;4.80;;;;;;;10.67;59.78;98707.97;4486588;31;20104;-93
2023/04/13 02:03:25;;;;;;;11.00;5.00;;;;;;;10.65;59.78;98702.00;4471626;32;20092;-93
2023/04/13 02:05:51;;;;;;;14.35;4.78;;;;;;;10.68;59.78;98699.25;4472714;31;20102;-94
2023/04/13 02:08:19;;;;;;;9.15;4.75;;;;;;;10.65;59.78;98707.22;4468229;31;20096;-93
2023/04/13 02:10:45;;;;;;;12.40;4.37;;;;;;;10.69;59.79;98704.38;4474635;32;20126;-93
2023/04/13 02:13:11;;;;;;;10.00;4.72;;;;;;;10.63;59.78;98698.63;4461738;32;20131;-93
2023/04/13 02:15:36;;;;;;;10.02;4.68;;;;;;;10.77;59.79;98699.63;4472638;31;20105;-93
2023/04/13 02:18:04;;;;;;;10.50;4.50;;;;;;;10.75;59.79;98703.22;4470795;32;20393;-94
2023/04/13 02:20:32;;;;;;;13.70;5.32;;;;;;;10.89;59.79;98699.94;4461306;31;20139;-94
2023/04/13 02:22:58;;;;;;;12.90;4.45;;;;;;;10.74;59.78;98704.16;4465372;32;20140;-92
2023/04/13 02:25:24;;;;;;;11.70;5.18;;;;;;;10.77;59.80;98704.84;4461809;31;20945;-91
2023/04/13 02:27:50;;;;;;;10.85;4.70;;;;;;;10.76;59.79;98705.75;4488862;31;20159;-92
2023/04/13 02:30:16;;;;;;;13.80;5.18;;;;;;;10.72;59.78;98703.38;4472876;31;20146;-91
2023/04/13 02:32:43;;;;;;;9.30;4.60;;;;;;;10.69;59.79;98703.53;4473944;32;20092;-92
2023/04/13 02:35:11;;;;;;;9.88;4.60;;;;;;;10.75;59.78;98703.22;4463025;31;20171;-92
2023/04/13 02:37:38;;;;;;;12.35;4.60;;;;;;;10.79;59.79;98693.50;4469749;32;20151;-91
2023/04/13 02:40:11;;;;;;;11.25;5.03;;;;;;;10.90;59.79;98686.84;4464844;31;20135;-92
2023/04/13 02:42:37;;;;;;;8.70;4.93;;;;;;;10.88;59.80;98695.63;4470134;32;20155;-94
2023/04/13 02:45:04;;;;;;;11.10;4.53;;;;;;;10.98;59.79;98696.88;4474199;31;20152;-93
2023/04/13 02:47:29;;;;;;;10.88;4.85;;;;;;;10.95;59.80;98689.22;4467720;32;20108;-92
2023/04/13 02:49:55;;;;;;;14.45;5.07;;;;;;;11.00;59.80;98685.47;4470093;32;20100;-92
2023/04/13 02:52:20;;;;;;;12.43;5.22;;;;;;;10.88;59.80;98685.22;4460006;32;20084;-92
2023/04/13 02:54:46;;;;;;;9.90;5.12;;;;;;;10.96;59.80;98683.09;4459720;32;20108;-93
2023/04/13 02:57:12;;;;;;;8.75;5.43;;;;;;;10.95;59.80;98689.22;4459708;32;20385;-92
2023/04/13 02:59:40;;;;;;;12.90;5.45;;;;;;;11.05;59.80;98685.22;4470559;32;20127;-92
2023/04/13 03:02:06;;;;;;;9.85;5.50;;;;;;;11.08;59.81;98685.06;4459427;32;20163;-93
2023/04/13 03:04:32;;;;;;;9.77;5.28;;;;;;;11.33;59.82;98684.63;4459745;32;20080;-93
2023/04/13 03:06:57;;;;;;;10.05;4.70;;;;;;;11.31;59.82;98682.13;4459790;32;20160;-93
2023/04/13 03:09:24;;;;;;;9.82;4.20;;;;;;;11.48;59.82;98694.28;4472662;32;20139;-94
2023/04/13 03:11:50;;;;;;;11.65;4.60;;;;;;;11.30;59.82;98685.66;4478342;31;20079;-92
2023/04/13 03:14:19;;;;;;;8.63;4.97;;;;;;;11.26;59.81;98683.28;4462786;32;20148;-93
2023/04/13 03:16:45;;;;;;;13.57;5.30;;;;;;;11.13;59.80;98685.69;4476681;31;20104;-93
2023/04/13 03:19:11;;;;;;;12.10;5.53;;;;;;;11.24;59.81;98685.13;4471854;32;20129;-93
2023/04/13 03:21:36;;;;;;;12.10;4.80;;;;;;;11.19;59.81;98685.38;4468604;31;20088;-94
2023/04/13 03:24:01;;;;;;;8.27;4.57;;;;;;;11.16;59.81;98685.53;4472503;32;20113;-94
2023/04/13 03:26:27;;;;;;;10.40;4.55;;;;;;;11.34;59.82;98692.38;4468715;31;20152;-94
2023/04/13 03:28:52;;;;;;;12.25;4.50;;;;;;;11.44;59.83;98682.34;4462504;32;20659;-94
2023/04/13 03:31:18;;;;;;;9.23;4.68;;;;;;;11.29;59.80;98688.34;4466471;32;20111;-95
2023/04/13 03:33:44;;;;;;;9.57;4.90;;;;;;;11.41;59.82;98681.66;4463429;31;20148;-95
2023/04/13 03:36:10;;;;;;;12.27;4.97;;;;;;;11.34;59.82;98676.75;4467918;32;20117;-95
2023/04/13 03:38:35;;;;;;;11.55;5.25;;;;;;;11.42;59.83;98678.12;4463236;32;20116;-94
2023/04/13 03:41:01;;;;;;;9.45;4.75;;;;;;;11.48;59.82;98678.62;4469221;32;20454;-94
2023/04/13 03:43:26;;;;;;;14.63;6.40;;;;;;;11.34;59.82;98679.34;4462875;31;20088;-94
2023/04/13 03:45:52;;;;;;;12.32;5.65;;;;;;;11.28;59.81;98679.69;4473420;32;20456;-94
2023/04/13 03:48:17;;;;;;;12.48;5.85;;;;;;;11.37;59.83;98675.78;4465447;31;20445;-93
2023/04/13 03:50:43;;;;;;;11.45;5.70;;;;;;;11.38;59.83;98672.25;4473735;32;20124;-93
2023/04/13 03:53:08;;;;;;;11.45;6.28;;;;;;;11.42;59.82;98668.53;4473562;31;20118;-92
2023/04/13 03:55:34;;;;;;;14.35;6.18;;;;;;;11.25;59.81;98668.56;4468304;32;20157;-94
2023/04/13 03:58:00;;;;;;;12.18;6.05;;;;;;;11.19;59.81;98667.13;4461463;32;20131;-94
2023/04/13 04:00:26;;;;;;;14.52;5.18;;;;;;;11.17;59.81;98663.78;4467366;31;20114;-91
2023/04/13 04:02:51;;;;;;;12.98;6.18;;;;;;;11.18;59.81;98668.06;4476303;31;20092;-94
2023/04/13 04:05:17;;;;;;;10.52;5.78;;;;;;;11.05;59.80;98669.59;4465866;32;20145;-95
2023/04/13 04:07:43;;;;;;;12.48;5.90;;;;;;;11.03;59.80;98672.28;4493199;31;20116;-95
2023/04/13 04:10:08;;;;;;;14.05;6.70;;;;;;;11.06;59.80;98677.34;4470745;32;20096;-91
2023/04/13 04:12:34;;;;;;;10.88;6.20;;;;;;;10.88;59.79;98680.00;4460027;32;20118;-92
2023/04/13 04:14:59;;;;;;;10.88;5.75;;;;;;;11.14;59.80;98678.72;4478369;32;20104;-93
2023/04/13 04:17:25;;;;;;;9.75;5.55;;;;;;;11.11;59.80;98679.69;4463900;32;20716;-93
2023/04/13 04:19:50;;;;;;;12.43;5.53;;;;;;;11.25;59.81;98677.22;4477580;32;20136;-94
2023/04/13 04:22:16;;;;;;;11.43;5.22;;;;;;;11.17;59.81;98676.81;4476469;31;20093;-91
2023/04/13 04:24:41;;;;;;;11.15;5.80;;;;;;;11.21;59.81;98678.31;4473396;32;20493;-94
2023/04/13 04:27:07;;;;;;;10.73;5.32;;;;;;;11.16;59.81;98680.31;4470994;31;20140;-93
2023/04/13 04:29:35;;;;;;;11.52;4.93;;;;;;;11.14;59.82;98682.16;4465789;32;20166;-93
2023/04/13 04:32:04;;;;;;;13.80;5.37;;;;;;;11.20;59.81;98687.06;4470868;31;20120;-93
2023/04/13 04:34:30;;;;;;;10.10;4.90;;;;;;;11.07;59.81;98683.37;4466721;31;20100;-93
2023/04/13 04:36:56;;;;;;;10.02;5.12;;;;;;;11.18;59.81;98686.28;4483409;32;20441;-94
2023/04/13 04:39:22;;;;;;;10.75;4.72;;;;;;;11.22;59.81;98690.41;4460286;32;20112;-94
2023/04/13 04:41:48;;;;;;;10.52;4.82;;;;;;;11.32;59.82;98689.00;4471060;32;20096;-95
2023/04/13 04:44:15;;;;;;;11.90;5.18;;;;;;;11.30;59.82;98685.66;4460634;32;20164;-94
2023/04/13 04:46:42;;;;;;;10.77;5.12;;;;;;;11.32;59.82;98683.81;4472106;31;20104;-93
2023/04/13 04:49:08;;;;;;;11.60;5.20;;;;;;;11.24;59.81;98691.19;4473028;32;20092;-93
2023/04/13 04:51:34;;;;;;;12.90;5.12;;;;;;;11.33;59.82;98695.06;4461165;32;20187;-93
2023/04/13 04:54:01;;;;;;;13.73;5.68;;;;;;;11.39;59.82;98694.78;4475616;31;20104;-93
2023/04/13 04:56:26;;;;;;;11.88;5.80;;;;;;;11.57;59.83;98695.53;4472089;32;20128;-92
2023/04/13 04:58:51;;;;;;;15.27;5.57;;;;;;;11.58;59.83;98697.22;4475285;31;20122;-93
2023/04/13 05:01:21;;;;;;;14.15;6.28;;;;;;;11.62;59.83;98693.56;4472677;32;20119;-94
2023/04/13 05:03:47;;;;;;;14.32;6.43;;;;;;;11.69;59.84;98690.53;4459848;32;20460;-91
2023/04/13 05:06:12;;;;;;;14.38;6.12;;;;;;;11.84;59.85;98690.69;4461459;31;20122;-89
2023/04/13 05:08:37;;;;;;;20.05;7.85;;;;;;;11.86;59.85;98688.84;4479143;32;20092;-91
2023/04/13 05:11:07;;;;;;;24.52;7.70;;;;;;;11.93;59.85;98679.75;4458967;32;20172;-92
2023/04/13 05:13:32;;;;;;;24.73;9.00;;;;;;;11.86;59.85;98681.84;4459195;32;20411;-92
2023/04/13 05:15:58;;;;;;;18.55;8.00;;;;;;;11.91;59.86;98686.81;4458893;32;20093;-92
2023/04/13 05:18:24;;;;;;;15.95;6.75;;;;;;;11.88;59.84;98690.44;4458656;32;20113;-91
2023/04/13 05:20:50;;;;;;;13.77;6.10;;;;;;;12.09;59.86;98690.19;4459099;32;20147;-91
2023/04/13 05:23:15;;;;;;;14.02;6.03;;;;;;;12.24;59.87;98692.78;4478988;32;20165;-93
2023/04/13 05:25:41;;;;;;;11.57;6.03;;;;;;;12.35;59.87;98699.19;4474815;31;20131;-94
2023/04/13 05:28:06;;;;;;;10.15;5.22;;;;;;;12.55;59.88;98689.31;4475745;32;20092;-93
2023/04/13 05:30:32;;;;;;;10.20;4.47;;;;;;;12.66;59.89;98688.69;4474570;31;20100;-92
2023/04/13 05:32:57;;;;;;;9.23;4.70;;;;;;;13.01;59.91;98694.47;4475534;31;20111;-93
2023/04/13 05:35:25;;;;;;;10.98;5.37;;;;;;;13.22;59.92;98695.00;4472619;32;20136;-93
2023/04/13 05:37:50;;;;;;;8.75;5.30;;;;;;;13.48;59.93;98690.81;4459626;32;20136;-93
2023/04/13 05:40:16;;;;;;;11.45;4.97;;;;;;;13.59;59.95;98688.41;4458875;32;20137;-93
2023/04/13 05:42:42;;;;;;;9.95;5.00;;;;;;;13.69;59.94;98683.44;4458538;32;20096;-93
2023/04/13 05:45:09;;;;;;;8.43;5.35;;;;;;;13.76;59.95;98688.22;4471491;32;20148;-93
2023/04/13 05:47:35;;;;;;;14.43;6.47;;;;;;;13.82;59.95;98692.22;4485058;32;20448;-93
2023/04/13 05:50:01;;;;;;;11.18;5.32;;;;;;;13.73;59.95;98688.41;4469614;32;20088;-93
2023/04/13 05:52:26;;;;;;;11.27;4.87;;;;;;;13.77;59.95;98689.87;4464676;31;20468;-93
2023/04/13 05:54:52;;;;;;;12.40;4.85;;;;;;;13.66;59.95;98694.09;4473458;31;20123;-93
2023/04/13 05:57:19;;;;;;;11.05;5.70;;;;;;;13.65;59.95;98688.00;4465629;32;20127;-93
2023/04/13 05:59:45;;;;;;;10.85;5.05;;;;;;;13.67;59.95;98691.38;4472509;31;20104;-93
2023/04/13 06:02:10;;;;;;;12.18;4.90;;;;;;;13.56;59.95;98687.75;4465361;32;22657;-93
2023/04/13 06:04:36;;;;;;;14.70;5.55;;;;;;;13.59;59.95;98683.16;4474513;31;20108;-93
2023/04/13 06:07:02;;;;;;;8.95;4.82;;;;;;;13.62;59.94;98682.13;4473654;31;20419;-94
2023/04/13 06:09:27;;;;;;;11.50;5.28;;;;;;;13.64;59.95;98685.50;4460208;32;20148;-93
2023/04/13 06:11:53;;;;;;;8.88;4.93;;;;;;;13.83;59.96;98692.13;4473274;31;20156;-93
2023/04/13 06:14:19;;;;;;;11.82;5.20;;;;;;;13.99;59.97;98686.78;4471027;32;20101;-93
2023/04/13 06:16:45;;;;;;;10.50;5.10;;;;;;;14.08;59.97;98680.13;4473271;32;20088;-93
2023/04/13 06:19:11;;;;;;;9.00;5.50;;;;;;;14.24;59.97;98686.06;4462011;32;20110;-93
2023/04/13 06:21:37;;;;;;;14.85;4.90;;;;;;;14.35;59.99;98680.97;4473411;31;20452;-93
2023/04/13 06:24:02;;;;;;;10.40;4.45;;;;;;;14.49;60.00;98680.13;4463834;31;20126;-93
2023/04/13 06:26:28;;;;;;;11.57;4.85;;;;;;;14.52;59.99;98685.16;4473561;32;20389;-93
2023/04/13 06:28:53;;;;;;;12.60;4.93;;;;;;;14.62;59.99;98680.16;4471377;32;20151;-93
2023/04/13 06:31:19;;;;;;;14.87;5.62;;;;;;;14.82;60.01;98694.56;4475401;31;20151;-92
2023/04/13 06:33:45;;;;;;;12.13;5.53;;;;;;;14.97;60.02;98680.44;4472438;32;20454;-92
2023/04/13 06:36:11;;;;;;;7.62;4.30;;;;;;;15.07;60.02;98681.50;4466569;32;20092;-93
2023/04/13 06:38:36;;;;;;;14.05;5.53;;;;;;;15.20;60.03;98695.47;4475531;31;20106;-92
2023/04/13 06:41:02;;;;;;;10.60;4.55;;;;;;;15.26;60.04;98683.72;4473697;32;20119;-93
2023/04/13 06:43:27;;;;;;;10.68;3.55;;;;;;;15.28;60.04;98684.44;4475589;32;20400;-94
2023/04/13 06:46:02;;;;;;;9.00;4.87;;;;;;;15.39;60.03;98684.56;4461299;32;20136;-93
2023/04/13 06:48:27;;;;;;;13.18;5.57;;;;;;;15.35;60.04;98685.69;4466780;31;20439;-94
2023/04/13 06:50:54;;;;;;;9.65;4.25;;;;;;;15.50;60.05;98692.53;4468405;32;20179;-93
2023/04/13 06:53:20;;;;;;;10.63;4.10;;;;;;;15.76;60.06;98689.91;4475211;31;20119;-93
2023/04/13 06:55:45;;;;;;;7.30;3.22;;;;;;;15.98;60.07;98697.13;4466100;32;20487;-93
2023/04/13 06:58:11;;;;;;;11.57;3.62;;;;;;;16.10;60.08;98693.62;4461161;32;20148;-93
2023/04/13 07:00:37;;;;;;;9.43;4.20;;;;;;;16.31;60.09;98689.44;4473105;32;20155;-94
2023/04/13 07:03:02;;;;;;;10.32;4.18;;;;;;;16.37;60.10;98693.44;4464243;31;20160;-94
2023/04/13 07:05:28;;;;;;;10.18;4.22;;;;;;;16.47;60.10;98684.75;4466476;32;20152;-94
2023/04/13 07:07:53;;;;;;;14.45;4.22;;;;;;;16.59;60.11;98690.91;4473787;31;20127;-94
2023/04/13 07:10:19;;;;;;;7.50;3.55;;;;;;;16.61;60.09;98689.03;4472687;32;20465;-93
2023/04/13 07:12:44;;;;;;;11.40;4.47;;;;;;;16.66;60.11;98686.91;4471948;32;20088;-94
2023/04/13 07:15:10;;;;;;;11.07;3.60;;;;;;;16.78;60.12;98696.50;4472935;32;20437;-93
2023/04/13 07:17:35;;;;;;;11.43;4.40;;;;;;;16.90;60.12;98704.44;4484484;31;20108;-94
2023/04/13 07:20:01;;;;;;;7.57;3.83;;;;;;;16.96;60.12;98701.34;4479813;32;20353;-94
2023/04/13 07:22:31;;;;;;;11.02;4.03;;;;;;;17.02;60.13;98695.63;4471895;32;20096;-94
2023/04/13 07:24:56;;;;;;;9.38;4.18;;;;;;;17.25;60.14;98701.78;4481834;31;20096;-93
2023/04/13 07:27:22;;;;;;;12.57;4.12;;;;;;;17.22;60.14;98694.12;4475334;31;20381;-94
2023/04/13 07:29:50;;;;;;;9.20;4.28;;;;;;;17.35;60.15;98690.47;4472404;32;20128;-93
2023/04/13 07:32:16;;;;;;;9.60;4.05;;;;;;;17.35;60.15;98703.63;4461000;31;20108;-93
2023/04/13 07:34:41;;;;;;;7.18;4.12;;;;;;;17.63;60.17;98701.47;4475260;31;20135;-94
2023/04/13 07:37:06;;;;;;;9.45;4.30;;;;;;;17.90;60.18;98702.00;4474451;32;20080;-94
2023/04/13 07:39:32;;;;;;;14.30;5.55;;;;;;;17.91;60.17;98701.03;4466496;32;20161;-93
2023/04/13 07:41:57;;;;;;;8.80;4.20;;;;;;;17.95;60.18;98709.53;4485600;31;20097;-94
2023/04/13 07:44:23;;;;;;;12.23;4.60;;;;;;;18.12;60.19;98700.28;4468510;31;20104;-93
2023/04/13 07:46:48;;;;;;;8.75;4.32;;;;;;;18.25;60.20;98701.00;4472469;32;20235;-93
2023/04/13 07:49:14;;;;;;;9.05;4.50;;;;;;;18.33;60.20;98695.94;4460122;32;20183;-94
2023/04/13 07:51:39;;;;;;;12.77;4.47;;;;;;;18.43;60.21;98702.12;4475260;31;20127;-94
2023/04/13 07:54:05;;;;;;;9.75;4.50;;;;;;;18.53;60.22;98699.63;4467055;32;20084;-93
2023/04/13 07:56:30;;;;;;;9.18;3.75;;;;;;;18.65;60.21;98709.19;4459832;32;20109;-93
2023/04/13 07:58:56;;;;;;;14.55;4.12;;;;;;;18.68;60.23;98707.13;4459842;32;20100;-93
2023/04/13 08:01:21;;;;;;;7.43;4.03;;;;;;;18.77;60.23;98705.56;4459797;32;20151;-94
2023/04/13 08:03:46;;;;;;;11.20;4.55;;;;;;;18.79;60.23;98700.97;4465787;32;20128;-93
2023/04/13 08:06:12;;;;;;;11.63;4.32;;;;;;;18.87;60.23;98698.53;4485382;32;20131;-93
2023/04/13 08:08:37;;;;;;;8.65;4.07;;;;;;;19.02;60.24;98696.44;4473297;32;20464;-95
2023/04/13 08:11:03;;;;;;;8.48;3.72;;;;;;;19.03;60.24;98692.84;4470837;32;25788;-94
2023/04/13 08:13:28;;;;;;;13.48;3.70;;;;;;;18.89;60.23;98695.78;4475077;32;20084;-93
2023/04/13 08:15:56;;;;;;;7.18;3.62;;;;;;;18.98;60.23;98689.75;4487147;32;20400;-93
2023/04/13 08:18:23;;;;;;;12.07;3.80;;;;;;;19.07;60.25;98696.88;4478501;32;20100;-94
2023/04/13 08:20:48;;;;;;;13.35;4.78;;;;;;;18.98;60.23;98692.41;4471826;32;20146;-93
2023/04/13 08:23:13;;;;;;;7.40;3.75;;;;;;;18.95;60.24;98687.38;4465035;32;20131;-94
2023/04/13 08:25:43;;;;;;;11.60;3.53;;;;;;;19.07;60.24;98690.78;4461295;32;20099;-94
2023/04/13 08:28:08;;;;;;;9.48;3.58;;;;;;;19.15;60.25;98693.59;4467791;31;20116;-94
2023/04/13 08:30:34;;;;;;;7.28;3.70;;;;;;;19.20;60.25;98694.06;4477493;31;20095;-94
2023/04/13 08:33:00;;;;;;;8.50;3.65;;;;;;;19.24;60.25;98693.69;4472172;32;20084;-93
2023/04/13 08:35:25;;;;;;;10.30;3.70;;;;;;;19.20;60.24;98692.28;4470308;31;20096;-93
2023/04/13 08:37:52;;;;;;;6.57;3.50;;;;;;;19.17;60.25;98694.34;4465094;32;20131;-94
2023/04/13 08:40:18;;;;;;;7.25;3.67;;;;;;;19.25;60.25;98697.16;4464774;31;20157;-94
2023/04/13 08:42:45;;;;;;;6.72;3.37;;;;;;;19.36;60.25;98696.22;4487843;31;20147;-93
2023/04/13 08:45:10;;;;;;;7.22;4.05;;;;;;;19.42;60.26;98687.81;4485419;31;20690;-94
2023/04/13 08:47:36;;;;;;;8.25;3.67;;;;;;;19.66;60.27;98687.56;4472473;31;20104;-95
2023/04/13 08:50:01;;;;;;;14.10;4.47;;;;;;;19.79;60.28;98682.87;4474722;31;20175;-94
2023/04/13 08:52:27;;;;;;;12.20;3.55;;;;;;;20.03;60.30;98682.53;4465783;32;20101;-94
2023/04/13 08:54:54;;;;;;;10.55;3.80;;;;;;;20.26;60.31;98676.06;4473142;31;20102;-94
2023/04/13 08:57:20;;;;;;;6.65;4.18;;;;;;;20.28;60.31;98675.91;4472084;32;20108;-94
2023/04/13 08:59:45;;;;;;;11.55;3.95;;;;;;;20.26;60.30;98677.84;4481065;32;20156;-95
2023/04/13 09:02:11;;;;;;;9.20;4.07;;;;;;;20.40;60.32;98669.56;4473678;31;25779;-93
2023/04/13 09:04:37;;;;;;;13.38;4.40;;;;;;;20.41;60.31;98661.50;4474471;31;20080;-94
2023/04/13 09:07:05;;;;;;;9.43;4.30;;;;;;;20.40;60.31;98661.63;4471798;32;20147;-95
2023/04/13 09:09:31;;;;;;;10.27;4.10;;;;;;;20.72;60.33;98669.31;4461920;31;20141;-94
2023/04/13 09:11:57;;;;;;;8.20;3.83;;;;;;;20.77;60.34;98673.19;4471978;32;20140;-94
2023/04/13 09:14:23;;;;;;;11.57;3.67;;;;;;;20.72;60.33;98669.31;4458931;32;20133;-94
2023/04/13 09:16:49;;;;;;;8.60;3.70;;;;;;;20.72;60.33;98664.03;4458851;32;20117;-93
2023/04/13 09:19:14;;;;;;;8.18;3.50;;;;;;;20.94;60.35;98661.09;4469435;32;20091;-94
2023/04/13 09:21:43;;;;;;;7.10;3.30;;;;;;;21.07;60.36;98666.94;4471811;32;20112;-95
2023/04/13 09:24:09;;;;;;;7.15;3.58;;;;;;;21.25;60.36;98666.22;4470936;31;20096;-94
2023/04/13 09:26:41;;;;;;;7.07;3.62;;;;;;;21.26;60.36;98671.38;4459228;32;20116;-94
2023/04/13 09:29:09;;;;;;;6.22;3.58;;;;;;;21.27;60.37;98670.38;4487612;31;20104;-94
2023/04/13 09:31:37;;;;;;;8.68;3.55;;;;;;;21.39;60.38;98665.78;4472355;31;20079;-94
2023/04/13 09:34:02;;;;;;;8.57;4.47;;;;;;;21.40;60.37;98672.72;4473950;32;20117;-94
2023/04/13 09:36:28;;;;;;;5.37;3.33;;;;;;;21.38;60.38;98664.94;4460350;32;20438;-94
2023/04/13 09:38:54;;;;;;;8.50;3.58;;;;;;;21.54;60.37;98666.16;4459102;32;20144;-94
2023/04/13 09:41:36;;;;;;;7.40;3.97;;;;;;;21.59;60.38;98662.09;4470231;31;20056;-94
2023/04/13 09:44:27;;;;;;;9.27;3.85;;;;;;;21.86;60.39;98665.72;4474065;32;20091;-94
2023/04/13 09:47:02;;;;;;;6.90;3.40;;;;;;;21.92;60.40;98665.13;4474187;32;20112;-94
2023/04/13 09:49:40;;;;;;;9.68;4.85;;;;;;;22.09;60.41;98664.38;4473562;32;20112;-94
2023/04/13 09:52:16;;;;;;;6.78;3.60;;;;;;;22.32;60.42;98665.63;4464204;32;20492;-94
2023/04/13 09:54:42;;;;;;;8.85;3.60;;;;;;;22.20;60.41;98666.00;4461389;31;20092;-94
2023/04/13 09:57:08;;;;;;;8.90;3.70;;;;;;;22.23;60.41;98660.37;4460272;32;20119;-94
2023/04/13 09:59:33;;;;;;;11.65;3.62;;;;;;;22.24;60.41;98656.75;4469431;31;20536;-94
2023/04/13 10:01:58;;;;;;;8.77;4.00;;;;;;;22.40;60.43;98651.63;4478139;32;20149;-94
2023/04/13 10:04:24;;;;;;;14.85;9.35;;;;;;;22.57;60.43;98655.28;4460333;31;20072;-94
2023/04/13 10:06:51;;;;;;;8.10;4.05;;;;;;;22.59;60.43;98654.13;4460529;32;20147;-94
2023/04/13 10:09:16;;;;;;;6.87;3.67;;;;;;;22.57;60.43;98655.28;4471089;31;20833;-93
2023/04/13 10:11:49;;;;;;;6.25;3.33;;;;;;;22.36;60.42;98664.34;4467741;31;20178;-94
2023/04/13 10:14:23;;;;;;;5.65;2.78;;;;;;;22.52;60.43;98662.84;4473076;31;20148;-93
2023/04/13 10:17:07;;;;;;;8.88;3.12;;;;;;;22.56;60.43;98658.91;4460571;32;20105;-94
2023/04/13 10:19:37;;;;;;;6.40;3.00;;;;;;;22.61;60.43;98653.97;4488125;31;20112;-94
2023/04/13 10:22:02;;;;;;;8.23;3.50;;;;;;;22.59;60.43;98663.91;4484330;31;20789;-95
2023/04/13 10:24:27;;;;;;;7.87;2.92;;;;;;;22.72;60.44;98663.53;4473295;32;20170;-94
2023/04/13 10:26:59;;;;;;;5.50;3.03;;;;;;;22.61;60.43;98664.59;4472596;31;24470;-94
2023/04/13 10:29:31;;;;;;;9.48;3.60;;;;;;;22.52;60.43;98663.69;4467958;31;20123;-94
2023/04/13 10:32:01;;;;;;;24.65;6.70;;;;;;;22.48;60.42;98661.50;4475919;31;20126;-94
2023/04/13 10:34:27;;;;;;;;;;;;;;;22.62;60.43;98656.47;4481892;32;20089;-95
2023/04/13 10:36:56;;;;;;;6.32;3.33;;;;;;;22.52;60.43;98661.03;4473023;31;20366;-93
2023/04/13 10:39:26;;;;;;;10.23;4.00;;;;;;;22.49;60.43;98660.50;4469072;31;20396;-94
2023/04/13 10:42:18;;;;;;;8.50;3.47;;;;;;;22.49;60.43;98661.34;4473036;31;20084;-94
2023/04/13 10:44:47;;;;;;;5.80;3.40;;;;;;;22.62;60.43;98660.94;4469697;31;23245;-93
2023/04/13 10:47:17;;;;;;;8.55;3.72;;;;;;;22.59;60.44;98650.66;4473145;32;20109;-94
2023/04/13 10:49:43;;;;;;;6.43;2.97;;;;;;;22.62;60.43;98653.00;4465669;31;20116;-95
2023/04/13 10:52:10;;;;;;;7.78;3.40;;;;;;;22.60;60.43;98647.84;4473351;31;20758;-94
2023/04/13 10:54:36;;;;;;;6.18;3.58;;;;;;;22.56;60.43;98638.53;4466394;31;20114;-94
2023/04/13 10:57:02;;;;;;;8.88;3.75;;;;;;;22.47;60.42;98642.06;4471145;32;20112;-94
2023/04/13 10:59:44;;;;;;;5.95;3.45;;;;;;;22.38;60.42;98643.00;4472415;31;20138;-94
2023/04/13 11:02:13;;;;;;;6.57;3.72;;;;;;;22.44;60.42;98644.19;4482596;31;20092;-93
2023/04/13 11:04:40;;;;;;;8.45;3.90;;;;;;;22.28;60.42;98635.13;4473230;31;20101;-94
2023/04/13 11:07:07;;;;;;;13.35;4.97;;;;;;;22.41;60.43;98632.06;4459770;32;20126;-94
2023/04/13 11:09:32;;;;;;;8.43;4.30;;;;;;;22.33;60.42;98640.78;4472844;32;20455;-94
2023/04/13 11:11:58;;;;;;;7.22;4.18;;;;;;;22.11;60.41;98640.38;4459725;32;20119;-94
2023/04/13 11:14:23;;;;;;;39.00;19.90;;;;;;;22.32;60.42;98639.13;4470075;32;20152;-93
2023/04/13 11:16:48;;;;;;;11.63;5.82;;;;;;;22.41;60.43;98640.03;4488095;31;20127;-94
2023/04/13 11:19:14;;;;;;;11.25;5.75;;;;;;;22.35;60.42;98635.34;4474879;31;20136;-93
2023/04/13 11:21:39;;;;;;;18.42;6.40;;;;;;;22.38;60.42;98624.44;4472629;32;20080;-93
2023/04/13 11:24:05;;;;;;;7.80;4.25;;;;;;;22.53;60.43;98622.09;4471187;32;20137;-93
2023/04/13 11:26:33;;;;;;;9.98;5.50;;;;;;;22.74;60.45;98614.66;4466062;32;20152;-93
2023/04/13 11:28:58;;;;;;;12.55;8.32;;;;;;;22.84;60.45;98615.41;4475138;31;20483;-93